createdAt,value
2019-02-08T00:02:09.206Z,-0.03
2019-02-08T00:04:39.687Z,-0.05
2019-02-08T00:07:10.533Z,-0.02
2019-02-08T00:09:40.958Z,-0.07
2019-02-08T00:12:12.187Z,-0.08
2019-02-08T00:14:42.478Z,-0.11
2019-02-08T00:17:12.715Z,-0.11
2019-02-08T00:19:42.956Z,-0.12
2019-02-08T00:22:13.697Z,-0.19
2019-02-08T00:24:44.006Z,-0.30
2019-02-08T00:27:14.145Z,-0.31
2019-02-08T00:29:44.491Z,-0.30
2019-02-08T00:32:14.849Z,-0.30
2019-02-08T00:34:45.480Z,-0.36
2019-02-08T00:37:15.979Z,-0.46
2019-02-08T00:39:46.299Z,-0.55
2019-02-08T00:42:16.547Z,-0.64
2019-02-08T00:44:48.416Z,-0.66
2019-02-08T00:47:18.596Z,-0.68
2019-02-08T00:49:48.794Z,-0.68
2019-02-08T00:52:19.085Z,-0.74
2019-02-08T00:54:49.634Z,-0.73
2019-02-08T00:57:20.151Z,-0.74
2019-02-08T00:59:50.584Z,-0.76
2019-02-08T01:02:21.075Z,-0.69
2019-02-08T01:04:51.224Z,-0.67
2019-02-08T01:07:21.514Z,-0.65
2019-02-08T01:09:51.693Z,-0.72
2019-02-08T01:12:21.945Z,-0.79
2019-02-08T01:14:52.179Z,-0.81
2019-02-08T01:17:22.439Z,-0.80
2019-02-08T01:19:52.649Z,-0.83
2019-02-08T01:22:22.882Z,-0.85
2019-02-08T01:24:53.421Z,-0.91
2019-02-08T01:27:23.603Z,-1.01
2019-02-08T01:29:53.984Z,-1.03
2019-02-08T01:32:24.305Z,-1.01
2019-02-08T01:34:54.691Z,-1.00
2019-02-08T01:37:24.822Z,-1.03
2019-02-08T01:39:55.005Z,-1.13
2019-02-08T01:42:25.258Z,-1.13
2019-02-08T01:44:55.480Z,-1.18
2019-02-08T01:47:25.720Z,-1.04
2019-02-08T01:49:55.881Z,-0.93
2019-02-08T01:52:26.077Z,-0.82
2019-02-08T01:54:56.230Z,-0.72
2019-02-08T01:57:26.546Z,-0.67
2019-02-08T01:59:57.252Z,-0.64
2019-02-08T02:02:27.710Z,-0.61
2019-02-08T02:04:57.811Z,-0.55
2019-02-08T02:07:28.073Z,-0.53
2019-02-08T02:09:58.221Z,-0.45
2019-02-08T02:12:28.483Z,-0.43
2019-02-08T02:14:58.708Z,-0.50
2019-02-08T02:17:28.991Z,-0.40
2019-02-08T02:19:59.303Z,-0.30
2019-02-08T02:22:30.105Z,-0.25
2019-02-08T02:25:00.340Z,-0.22
2019-02-08T02:27:30.875Z,-0.22
2019-02-08T02:30:01.052Z,-0.28
2019-02-08T02:32:31.231Z,-0.22
2019-02-08T02:35:01.336Z,-0.17
2019-02-08T02:37:31.490Z,-0.12
2019-02-08T02:40:01.768Z,-0.06
2019-02-08T02:42:31.991Z,0.00
2019-02-08T02:45:02.209Z,-0.01
2019-02-08T02:47:33.349Z,-0.03
2019-02-08T02:50:04.020Z,-0.05
2019-02-08T02:52:34.361Z,-0.04
2019-02-08T02:55:05.091Z,-0.04
2019-02-08T02:57:35.578Z,-0.05
2019-02-08T03:00:12.759Z,-0.02
2019-02-08T03:02:43.181Z,-0.01
2019-02-08T03:05:13.643Z,-0.01
2019-02-08T03:07:44.175Z,0.02
2019-02-08T03:10:18.246Z,0.03
2019-02-08T03:12:48.597Z,0.03
2019-02-08T03:15:20.966Z,0.07
2019-02-08T03:17:51.825Z,0.09
2019-02-08T03:20:23.427Z,0.10
2019-02-08T03:22:54.273Z,0.05
2019-02-08T03:25:25.770Z,0.10
2019-02-08T03:27:56.211Z,0.10
2019-02-08T03:30:33.995Z,0.10
2019-02-08T03:33:04.304Z,0.06
2019-02-08T03:35:34.500Z,0.06
2019-02-08T03:38:05.189Z,0.10
2019-02-08T03:40:35.786Z,0.13
2019-02-08T03:43:08.181Z,0.06
2019-02-08T03:45:40.761Z,0.09
2019-02-08T03:48:12.081Z,0.12
2019-02-08T03:50:42.416Z,0.09
2019-02-08T03:53:13.360Z,0.12
2019-02-08T03:55:43.782Z,0.19
2019-02-08T03:58:13.978Z,0.21
2019-02-08T04:00:58.412Z,0.24
2019-02-08T04:03:28.660Z,0.26
2019-02-08T04:05:58.827Z,0.13
2019-02-08T04:08:29.172Z,0.09
2019-02-08T04:10:59.485Z,0.20
2019-02-08T04:13:32.696Z,0.23
2019-02-08T04:16:04.927Z,0.27
2019-02-08T04:18:35.065Z,0.29
2019-02-08T04:21:05.474Z,0.33
2019-02-08T04:23:35.835Z,0.36
2019-02-08T04:26:06.212Z,0.38
2019-02-08T04:28:36.460Z,0.37
2019-02-08T04:31:06.963Z,0.28
2019-02-08T04:33:37.909Z,0.30
2019-02-08T04:36:08.425Z,0.31
2019-02-08T04:38:38.590Z,0.34
2019-02-08T04:41:08.843Z,0.35
2019-02-08T04:43:38.948Z,0.37
2019-02-08T04:46:09.098Z,0.34
2019-02-08T04:48:40.572Z,0.31
2019-02-08T04:51:10.763Z,0.26
2019-02-08T04:53:41.331Z,0.22
2019-02-08T04:56:11.562Z,0.22
2019-02-08T04:58:41.969Z,0.23
2019-02-08T05:01:12.155Z,0.24
2019-02-08T05:03:42.342Z,0.19
2019-02-08T05:06:12.775Z,0.13
2019-02-08T05:08:42.976Z,0.09
2019-02-08T05:11:13.167Z,0.00
2019-02-08T05:13:43.298Z,-0.10
2019-02-08T05:16:13.602Z,-0.20
2019-02-08T05:18:43.749Z,-0.26
2019-02-08T05:21:13.956Z,-0.33
2019-02-08T05:23:44.107Z,-0.38
2019-02-08T05:26:14.395Z,-0.41
2019-02-08T05:28:45.082Z,-0.46
2019-02-08T05:31:15.385Z,-0.53
2019-02-08T05:33:45.819Z,-0.59
2019-02-08T05:36:16.145Z,-0.65
2019-02-08T05:38:46.802Z,-0.67
2019-02-08T05:41:17.086Z,-0.71
2019-02-08T05:43:47.627Z,-0.76
2019-02-08T05:46:17.871Z,-0.80
2019-02-08T05:48:50.895Z,-0.86
2019-02-08T05:51:21.037Z,-0.89
2019-02-08T05:53:51.265Z,-0.99
2019-02-08T05:56:21.462Z,-1.01
2019-02-08T05:58:51.701Z,-1.02
2019-02-08T06:01:21.908Z,-1.05
2019-02-08T06:03:52.159Z,-1.09
2019-02-08T06:06:22.951Z,-1.15
2019-02-08T06:08:53.177Z,-1.17
2019-02-08T06:11:23.635Z,-1.19
2019-02-08T06:13:53.912Z,-1.26
2019-02-08T06:16:24.268Z,-1.27
2019-02-08T06:18:54.930Z,-1.27
2019-02-08T06:21:25.342Z,-1.27
2019-02-08T06:23:55.547Z,-1.27
2019-02-08T06:26:25.715Z,-1.27
2019-02-08T06:28:55.955Z,-1.27
2019-02-08T06:31:26.250Z,-1.31
2019-02-08T06:33:56.481Z,-1.43
2019-02-08T06:36:26.622Z,-1.45
2019-02-08T06:38:56.763Z,-1.53
2019-02-08T06:41:26.915Z,-1.52
2019-02-08T06:43:57.150Z,-1.46
2019-02-08T06:46:27.549Z,-1.44
2019-02-08T06:48:57.746Z,-1.45
2019-02-08T06:51:28.275Z,-1.46
2019-02-08T06:53:58.711Z,-1.46
2019-02-08T06:56:46.546Z,-1.42
2019-02-08T06:59:27.267Z,-1.38
2019-02-08T07:02:34.657Z,-1.37
2019-02-08T07:05:28.038Z,-1.33
2019-02-08T07:08:09.311Z,-1.28
2019-02-08T07:10:56.055Z,-1.24
2019-02-08T07:13:53.478Z,-1.16
2019-02-08T07:16:54.738Z,-1.12
2019-02-08T07:19:32.386Z,-1.08
2019-02-08T07:22:12.604Z,-1.03
2019-02-08T07:24:49.220Z,-1.00
2019-02-08T07:27:47.696Z,-0.90
2019-02-08T07:30:48.486Z,-0.90
2019-02-08T07:33:30.658Z,-0.84
2019-02-08T07:36:19.912Z,-0.78
2019-02-08T07:39:12.878Z,-0.82
2019-02-08T07:42:08.631Z,-0.78
2019-02-08T07:45:10.762Z,-0.75
2019-02-08T07:48:03.056Z,-0.74
2019-02-08T07:50:38.557Z,-0.67
2019-02-08T07:53:26.903Z,-0.58
2019-02-08T07:56:15.131Z,-0.60
2019-02-08T07:59:05.291Z,-0.41
2019-02-08T08:01:54.947Z,-0.36
2019-02-08T08:04:44.143Z,-0.26
2019-02-08T08:07:39.623Z,-0.21
2019-02-08T08:10:40.511Z,-0.08
2019-02-08T08:13:42.017Z,0.15
2019-02-08T08:16:30.083Z,0.38
2019-02-08T08:19:28.559Z,0.69
2019-02-08T08:22:20.347Z,1.18
2019-02-08T08:25:13.039Z,1.81
2019-02-08T08:28:08.463Z,2.54
2019-02-08T08:30:56.429Z,3.57
2019-02-08T08:33:38.096Z,4.69
2019-02-08T08:36:42.703Z,5.85
2019-02-08T08:40:01.803Z,7.33
2019-02-08T08:43:06.177Z,8.02
2019-02-08T08:46:20.028Z,9.19
2019-02-08T08:49:33.602Z,9.81
2019-02-08T08:52:20.874Z,10.25
2019-02-08T08:55:22.064Z,10.64
2019-02-08T08:58:19.703Z,11.25
2019-02-08T09:01:26.222Z,11.70
2019-02-08T09:04:23.651Z,12.83
2019-02-08T09:07:35.771Z,14.64
2019-02-08T09:10:52.175Z,14.64
2019-02-08T09:13:58.297Z,15.37
2019-02-08T09:16:55.732Z,16.53
2019-02-08T09:20:22.200Z,16.73
2019-02-08T09:23:23.243Z,17.94
2019-02-08T09:26:23.203Z,18.79
2019-02-08T09:29:43.413Z,19.16
2019-02-08T09:33:12.933Z,19.34
2019-02-08T09:36:27.665Z,20.54
2019-02-08T09:39:39.241Z,20.99
2019-02-08T09:42:36.636Z,21.71
2019-02-08T09:45:43.877Z,22.14
2019-02-08T09:49:04.727Z,22.64
2019-02-08T09:52:05.231Z,22.53
2019-02-08T09:55:18.283Z,22.38
2019-02-08T09:58:25.796Z,19.17
2019-02-08T10:01:27.216Z,19.06
2019-02-08T10:04:50.394Z,20.00
2019-02-08T10:07:39.553Z,20.32
2019-02-08T10:10:59.798Z,20.23
2019-02-08T10:14:06.560Z,20.95
2019-02-08T10:17:13.923Z,19.24
2019-02-08T10:20:09.769Z,19.29
2019-02-08T10:23:25.921Z,18.20
2019-02-08T10:26:38.737Z,18.88
2019-02-08T10:29:47.363Z,19.90
2019-02-08T10:33:12.734Z,20.98
2019-02-08T10:36:14.542Z,18.61
2019-02-08T10:39:30.963Z,18.42
2019-02-08T10:42:48.069Z,20.08
2019-02-08T10:46:11.862Z,20.97
2019-02-08T10:49:22.138Z,20.53
2019-02-08T10:52:39.181Z,21.41
2019-02-08T10:55:46.557Z,22.56
2019-02-08T10:58:53.751Z,23.97
2019-02-08T11:02:04.158Z,25.80
2019-02-08T11:05:20.642Z,23.75
2019-02-08T11:08:45.954Z,26.67
2019-02-08T11:12:09.118Z,27.61
2019-02-08T11:15:16.152Z,26.29
2019-02-08T11:18:38.727Z,27.53
2019-02-08T11:21:10.507Z,24.76
2019-02-08T11:23:41.028Z,25.67
2019-02-08T11:26:12.104Z,21.77
2019-02-08T11:28:42.582Z,24.34
2019-02-08T11:31:12.789Z,25.76
2019-02-08T11:33:43.208Z,24.20
2019-02-08T11:36:13.532Z,24.53
2019-02-08T11:38:44.903Z,21.58
2019-02-08T11:41:15.407Z,20.97
2019-02-08T11:43:45.724Z,19.89
2019-02-08T11:46:15.940Z,19.56
2019-02-08T11:48:46.239Z,19.99
2019-02-08T11:51:16.561Z,20.98
2019-02-08T11:53:47.018Z,24.26
2019-02-08T11:56:17.850Z,25.82
2019-02-08T11:58:48.027Z,24.20
2019-02-08T12:01:18.314Z,24.55
2019-02-08T12:03:49.844Z,22.92
2019-02-08T12:06:20.416Z,25.16
2019-02-08T12:08:50.659Z,24.70
2019-02-08T12:11:21.069Z,22.96
2019-02-08T12:13:51.257Z,23.60
2019-02-08T12:16:21.708Z,21.86
2019-02-08T12:18:52.404Z,21.73
2019-02-08T12:21:22.731Z,21.77
2019-02-08T12:23:53.909Z,21.10
2019-02-08T12:26:25.504Z,22.75
2019-02-08T12:28:55.924Z,23.07
2019-02-08T12:31:26.164Z,21.18
2019-02-08T12:33:56.514Z,21.18
2019-02-08T12:36:26.887Z,20.20
2019-02-08T12:38:57.479Z,19.62
2019-02-08T12:41:27.887Z,18.73
2019-02-08T12:43:58.254Z,19.98
2019-02-08T12:46:29.319Z,20.92
2019-02-08T12:48:59.687Z,20.65
2019-02-08T12:51:29.875Z,18.12
2019-02-08T12:54:00.070Z,17.60
2019-02-08T13:00:04.718Z,18.44
2019-02-08T13:02:35.325Z,18.03
2019-02-08T13:05:06.399Z,17.36
2019-02-08T13:07:36.593Z,17.40
2019-02-08T13:10:10.334Z,15.94
2019-02-08T13:12:40.708Z,15.58
2019-02-08T13:15:11.618Z,17.42
2019-02-08T13:17:41.903Z,19.03
2019-02-08T13:20:14.399Z,19.34
2019-02-08T13:22:44.575Z,19.76
2019-02-08T13:25:15.651Z,19.28
2019-02-08T13:27:45.912Z,18.85
2019-02-08T13:30:24.585Z,17.33
2019-02-08T13:32:55.014Z,17.49
2019-02-08T13:35:25.178Z,17.39
2019-02-08T13:37:55.475Z,17.57
2019-02-08T13:40:26.089Z,17.18
2019-02-08T13:42:56.531Z,17.03
2019-02-08T13:45:27.110Z,17.28
2019-02-08T13:47:57.410Z,17.22
2019-02-08T13:50:28.144Z,17.25
2019-02-08T13:52:58.734Z,17.32
2019-02-08T13:55:29.502Z,17.92
2019-02-08T13:57:59.973Z,17.73
2019-02-08T14:00:32.909Z,17.58
2019-02-08T14:03:06.871Z,17.62
2019-02-08T14:05:37.247Z,18.03
2019-02-08T14:08:07.433Z,17.15
2019-02-08T14:10:47.379Z,17.82
2019-02-08T14:13:17.669Z,16.34
2019-02-08T14:15:48.375Z,17.25
2019-02-08T14:18:18.758Z,16.84
2019-02-08T14:20:49.013Z,16.23
2019-02-08T14:23:19.556Z,15.13
2019-02-08T14:25:49.875Z,16.10
2019-02-08T14:28:21.688Z,16.07
2019-02-08T14:30:52.090Z,15.23
2019-02-08T14:33:22.715Z,15.75
2019-02-08T14:35:53.099Z,15.09
2019-02-08T14:38:23.475Z,16.04
2019-02-08T14:40:53.719Z,16.01
2019-02-08T14:43:24.190Z,15.60
2019-02-08T14:45:55.073Z,16.21
2019-02-08T14:48:25.462Z,15.84
2019-02-08T14:50:55.584Z,15.58
2019-02-08T14:53:27.741Z,15.52
2019-02-08T14:55:58.018Z,14.67
2019-02-08T14:58:28.340Z,14.98
2019-02-08T15:00:58.926Z,15.10
2019-02-08T15:03:29.523Z,15.22
2019-02-08T15:05:59.777Z,15.07
2019-02-08T15:08:30.343Z,14.68
2019-02-08T15:11:00.881Z,13.88
2019-02-08T15:13:31.112Z,14.06
2019-02-08T15:16:02.321Z,14.40
2019-02-08T15:18:32.665Z,14.15
2019-02-08T15:21:02.985Z,14.03
2019-02-08T15:23:33.780Z,13.83
2019-02-08T15:26:04.034Z,13.68
2019-02-08T15:28:34.379Z,13.51
2019-02-08T15:31:05.047Z,13.16
2019-02-08T15:33:35.536Z,13.10
2019-02-08T15:36:06.070Z,12.72
2019-02-08T15:38:36.832Z,12.75
2019-02-08T15:41:07.079Z,12.60
2019-02-08T15:43:38.116Z,12.43
2019-02-08T15:46:09.379Z,12.18
2019-02-08T15:48:40.096Z,11.89
2019-02-08T15:51:10.604Z,11.65
2019-02-08T15:53:41.028Z,11.50
2019-02-08T15:56:29.575Z,11.33
2019-02-08T15:58:59.981Z,11.15
2019-02-08T16:01:30.849Z,10.89
2019-02-08T16:04:01.529Z,10.69
2019-02-08T16:06:31.845Z,10.59
2019-02-08T16:09:02.359Z,10.39
2019-02-08T16:11:33.028Z,10.19
2019-02-08T16:14:03.461Z,10.02
2019-02-08T16:16:34.004Z,9.91
2019-02-08T16:19:04.634Z,9.69
2019-02-08T16:21:35.021Z,9.37
2019-02-08T16:24:05.908Z,9.28
2019-02-08T16:26:36.250Z,8.70
2019-02-08T16:29:06.931Z,8.40
2019-02-08T16:31:37.565Z,8.18
2019-02-08T16:34:08.370Z,8.31
2019-02-08T16:36:38.731Z,8.03
2019-02-08T16:39:11.088Z,8.14
2019-02-08T16:41:42.161Z,8.12
2019-02-08T16:44:12.951Z,7.99
2019-02-08T16:46:43.458Z,7.91
2019-02-08T16:49:14.092Z,7.84
2019-02-08T16:51:44.610Z,7.78
2019-02-08T16:54:15.116Z,7.65
2019-02-08T16:56:45.756Z,7.48
2019-02-08T16:59:16.178Z,7.37
2019-02-08T17:01:46.905Z,7.33
2019-02-08T17:04:17.525Z,7.13
2019-02-08T17:06:47.870Z,7.19
2019-02-08T17:09:18.216Z,7.21
2019-02-08T17:12:07.444Z,7.03
2019-02-08T17:14:38.274Z,7.02
2019-02-08T17:17:08.846Z,6.87
2019-02-08T17:19:39.736Z,6.94
2019-02-08T17:22:09.977Z,6.94
2019-02-08T17:24:40.713Z,6.86
2019-02-08T17:27:11.313Z,6.86
2019-02-08T17:29:41.976Z,6.84
2019-02-08T17:32:12.406Z,6.74
2019-02-08T17:34:42.688Z,6.69
2019-02-08T17:37:13.023Z,6.37
2019-02-08T17:39:43.294Z,6.40
2019-02-08T17:42:14.881Z,6.10
2019-02-08T17:44:45.293Z,5.93
2019-02-08T17:47:15.483Z,5.85
2019-02-08T17:49:45.909Z,5.94
2019-02-08T17:52:16.157Z,5.75
2019-02-08T17:54:46.750Z,5.93
2019-02-08T17:57:17.210Z,5.96
2019-02-08T17:59:47.584Z,5.89
2019-02-08T18:02:17.885Z,5.98
2019-02-08T18:04:48.332Z,6.00
2019-02-08T18:07:18.746Z,5.93
2019-02-08T18:09:49.280Z,5.88
2019-02-08T18:12:20.722Z,5.81
2019-02-08T18:14:51.106Z,5.71
2019-02-08T18:17:21.605Z,5.61
2019-02-08T18:19:53.046Z,5.47
2019-02-08T18:22:23.480Z,5.35
2019-02-08T18:24:54.015Z,5.30
2019-02-08T18:27:24.558Z,5.18
2019-02-08T18:29:54.882Z,5.09
2019-02-08T18:32:25.256Z,4.99
2019-02-08T18:34:55.735Z,4.85
2019-02-08T18:37:26.198Z,4.79
2019-02-08T18:39:56.499Z,4.69
2019-02-08T18:42:26.937Z,4.64
2019-02-08T18:44:57.209Z,4.51
2019-02-08T18:47:27.761Z,4.44
2019-02-08T18:49:58.330Z,4.36
2019-02-08T18:52:28.837Z,4.27
2019-02-08T18:54:59.436Z,4.20
2019-02-08T18:57:30.930Z,4.15
2019-02-08T19:00:01.653Z,4.07
2019-02-08T19:02:32.121Z,3.95
2019-02-08T19:05:02.766Z,3.59
2019-02-08T19:07:33.254Z,3.38
2019-02-08T19:10:03.785Z,3.41
2019-02-08T19:12:34.289Z,3.48
2019-02-08T19:15:05.981Z,3.40
2019-02-08T19:17:36.516Z,3.38
2019-02-08T19:20:08.155Z,3.33
2019-02-08T19:22:38.540Z,3.30
2019-02-08T19:25:14.686Z,3.20
2019-02-08T19:27:45.078Z,3.23
2019-02-08T19:30:19.530Z,3.20
2019-02-08T19:32:50.101Z,3.10
2019-02-08T19:35:20.467Z,3.13
2019-02-08T19:37:50.944Z,3.13
2019-02-08T19:40:23.764Z,3.10
2019-02-08T19:42:54.224Z,3.09
2019-02-08T19:45:25.102Z,3.02
2019-02-08T19:47:55.522Z,3.01
2019-02-08T19:50:29.126Z,2.96
2019-02-08T19:52:59.746Z,2.91
2019-02-08T19:55:30.432Z,2.84
2019-02-08T19:58:01.054Z,2.80
2019-02-08T20:00:33.346Z,2.80
2019-02-08T20:03:04.154Z,2.76
2019-02-08T20:05:36.275Z,2.73
2019-02-08T20:08:07.636Z,2.61
2019-02-08T20:10:40.637Z,2.55
2019-02-08T20:13:12.081Z,2.51
2019-02-08T20:15:42.546Z,2.51
2019-02-08T20:18:14.397Z,2.50
2019-02-08T20:20:44.776Z,2.50
2019-02-08T20:23:15.487Z,2.43
2019-02-08T20:25:46.486Z,2.25
2019-02-08T20:28:19.114Z,2.20
2019-02-08T20:30:49.870Z,2.24
2019-02-08T20:33:20.417Z,2.28
2019-02-08T20:35:50.805Z,2.30
2019-02-08T20:38:21.763Z,2.32
2019-02-08T20:40:52.966Z,2.33
2019-02-08T20:43:24.821Z,2.22
2019-02-08T20:45:55.468Z,2.06
2019-02-08T20:48:26.046Z,2.05
2019-02-08T20:50:56.709Z,2.08
2019-02-08T20:53:26.988Z,2.08
2019-02-08T20:55:57.821Z,2.09
2019-02-08T20:58:28.834Z,2.04
2019-02-08T21:01:00.423Z,2.02
2019-02-08T21:03:31.214Z,2.00
2019-02-08T21:06:01.981Z,2.00
2019-02-08T21:08:33.013Z,1.94
2019-02-08T21:11:03.941Z,1.83
2019-02-08T21:13:34.580Z,1.82
2019-02-08T21:16:06.051Z,1.80
2019-02-08T21:18:36.732Z,1.82
2019-02-08T21:21:07.666Z,1.83
2019-02-08T21:23:38.032Z,1.80
2019-02-08T21:26:08.857Z,1.78
2019-02-08T21:28:39.375Z,1.73
2019-02-08T21:31:10.109Z,1.74
2019-02-08T21:33:40.697Z,1.73
2019-02-08T21:36:11.109Z,1.73
2019-02-08T21:38:42.036Z,1.72
2019-02-08T21:41:12.407Z,1.71
2019-02-08T21:43:43.102Z,1.63
2019-02-08T21:46:13.699Z,1.63
2019-02-08T21:48:44.036Z,1.57
2019-02-08T21:51:14.614Z,1.56
2019-02-08T21:53:45.345Z,1.55
2019-02-08T21:56:16.106Z,1.55
2019-02-08T21:58:46.443Z,1.50
2019-02-08T22:09:42.091Z,1.28
2019-02-08T22:12:12.460Z,1.19
2019-02-08T22:14:43.342Z,1.15
2019-02-08T22:17:13.750Z,1.12
2019-02-08T22:19:44.306Z,1.09
2019-02-08T22:22:14.769Z,1.00
2019-02-08T22:24:45.275Z,0.94
2019-02-08T22:27:16.994Z,0.91
2019-02-08T22:29:47.387Z,0.86
2019-02-08T22:32:17.804Z,0.82
2019-02-08T22:34:48.121Z,0.74
2019-02-08T22:37:18.797Z,0.71
2019-02-08T22:39:49.247Z,0.70
2019-02-08T22:42:19.466Z,0.66
2019-02-08T22:44:49.716Z,0.65
2019-02-08T22:47:20.398Z,0.62
2019-02-08T22:49:50.969Z,0.55
2019-02-08T22:52:21.330Z,0.49
2019-02-08T22:54:51.519Z,0.50
2019-02-08T22:57:21.842Z,0.50
2019-02-08T22:59:52.384Z,0.49
2019-02-08T23:02:22.992Z,0.48
2019-02-08T23:04:53.189Z,0.43
2019-02-08T23:07:23.323Z,0.35
2019-02-08T23:09:53.626Z,0.30
2019-02-08T23:12:24.900Z,0.26
2019-02-08T23:14:56.545Z,0.17
2019-02-08T23:17:26.877Z,0.07
2019-02-08T23:19:57.341Z,0.07
2019-02-08T23:22:27.516Z,0.05
2019-02-08T23:24:57.759Z,0.03
2019-02-08T23:27:27.934Z,-0.04
2019-02-08T23:29:58.124Z,-0.17
2019-02-08T23:32:28.391Z,-0.16
2019-02-08T23:34:58.604Z,-0.16
2019-02-08T23:37:30.230Z,-0.10
2019-02-08T23:40:00.721Z,-0.20
2019-02-08T23:42:31.062Z,-0.33
2019-02-08T23:45:01.262Z,-0.29
2019-02-08T23:47:31.446Z,-0.35
2019-02-08T23:50:01.701Z,-0.38
2019-02-08T23:52:32.616Z,-0.38
2019-02-08T23:55:03.095Z,-0.36
2019-02-08T23:57:33.397Z,-0.38
